sensor_id;sensor_type;location;lat;lon;timestamp;temperature;humidity
27781;DHT22;15167;1.318;103.762;2023-02-28T00:00:13;24.30;99.90
27781;DHT22;15167;1.318;103.762;2023-02-28T00:02:40;24.30;99.90
27781;DHT22;15167;1.318;103.762;2023-02-28T00:05:07;24.30;99.90
27781;DHT22;15167;1.318;103.762;2023-02-28T00:07:33;24.30;99.90
27781;DHT22;15167;1.318;103.762;2023-02-28T00:10:00;24.30;99.90
27781;DHT22;15167;1.318;103.762;2023-02-28T00:12:26;24.30;99.90
27781;DHT22;15167;1.318;103.762;2023-02-28T00:14:52;24.30;99.90
27781;DHT22;15167;1.318;103.762;2023-02-28T00:17:18;24.30;99.90
27781;DHT22;15167;1.318;103.762;2023-02-28T00:19:47;24.40;99.90
27781;DHT22;15167;1.318;103.762;2023-02-28T00:22:14;24.40;99.90
27781;DHT22;15167;1.318;103.762;2023-02-28T00:24:40;24.50;99.90
27781;DHT22;15167;1.318;103.762;2023-02-28T00:27:06;24.40;99.90
27781;DHT22;15167;1.318;103.762;2023-02-28T00:29:32;24.40;99.90
27781;DHT22;15167;1.318;103.762;2023-02-28T00:31:59;24.50;99.90
27781;DHT22;15167;1.318;103.762;2023-02-28T00:34:25;24.50;99.90
27781;DHT22;15167;1.318;103.762;2023-02-28T00:36:51;24.50;99.90
27781;DHT22;15167;1.318;103.762;2023-02-28T00:39:17;24.50;99.90
27781;DHT22;15167;1.318;103.762;2023-02-28T00:41:43;24.50;99.90
27781;DHT22;15167;1.318;103.762;2023-02-28T00:44:09;24.60;99.90
27781;DHT22;15167;1.318;103.762;2023-02-28T00:46:35;24.60;99.90
27781;DHT22;15167;1.318;103.762;2023-02-28T00:49:02;24.70;99.90
27781;DHT22;15167;1.318;103.762;2023-02-28T00:51:28;24.70;99.90
27781;DHT22;15167;1.318;103.762;2023-02-28T00:53:54;24.70;99.90
27781;DHT22;15167;1.318;103.762;2023-02-28T00:56:20;24.70;99.90
27781;DHT22;15167;1.318;103.762;2023-02-28T00:58:46;24.80;99.90
27781;DHT22;15167;1.318;103.762;2023-02-28T01:01:12;24.80;99.90
27781;DHT22;15167;1.318;103.762;2023-02-28T01:03:38;24.70;99.90
27781;DHT22;15167;1.318;103.762;2023-02-28T01:06:05;24.70;99.90
27781;DHT22;15167;1.318;103.762;2023-02-28T01:08:31;24.80;99.90
27781;DHT22;15167;1.318;103.762;2023-02-28T01:10:57;24.80;99.90
27781;DHT22;15167;1.318;103.762;2023-02-28T01:13:23;24.90;99.90
27781;DHT22;15167;1.318;103.762;2023-02-28T01:15:52;24.90;99.90
27781;DHT22;15167;1.318;103.762;2023-02-28T01:18:18;25.00;99.90
27781;DHT22;15167;1.318;103.762;2023-02-28T01:20:45;25.00;99.90
27781;DHT22;15167;1.318;103.762;2023-02-28T01:23:11;25.10;99.90
27781;DHT22;15167;1.318;103.762;2023-02-28T01:25:37;25.20;99.90
27781;DHT22;15167;1.318;103.762;2023-02-28T01:28:04;25.30;99.90
27781;DHT22;15167;1.318;103.762;2023-02-28T01:30:31;25.30;99.90
27781;DHT22;15167;1.318;103.762;2023-02-28T01:32:58;25.20;99.90
27781;DHT22;15167;1.318;103.762;2023-02-28T01:35:24;25.20;99.90
27781;DHT22;15167;1.318;103.762;2023-02-28T01:37:50;25.20;99.90
27781;DHT22;15167;1.318;103.762;2023-02-28T01:40:16;25.20;99.90
27781;DHT22;15167;1.318;103.762;2023-02-28T01:42:42;25.20;99.90
27781;DHT22;15167;1.318;103.762;2023-02-28T01:45:19;25.20;99.90
27781;DHT22;15167;1.318;103.762;2023-02-28T01:47:47;25.10;99.90
27781;DHT22;15167;1.318;103.762;2023-02-28T01:50:18;25.10;99.90
27781;DHT22;15167;1.318;103.762;2023-02-28T01:52:45;25.20;99.90
27781;DHT22;15167;1.318;103.762;2023-02-28T01:55:12;25.20;99.90
27781;DHT22;15167;1.318;103.762;2023-02-28T01:57:43;25.30;99.90
27781;DHT22;15167;1.318;103.762;2023-02-28T02:00:15;25.50;99.90
27781;DHT22;15167;1.318;103.762;2023-02-28T02:02:43;25.50;99.90
27781;DHT22;15167;1.318;103.762;2023-02-28T02:05:29;25.50;99.90
27781;DHT22;15167;1.318;103.762;2023-02-28T02:08:04;25.50;99.90
27781;DHT22;15167;1.318;103.762;2023-02-28T02:18:19;25.20;99.90
27781;DHT22;15167;1.318;103.762;2023-02-28T02:23:20;25.40;99.90
27781;DHT22;15167;1.318;103.762;2023-02-28T02:28:36;25.30;99.90
27781;DHT22;15167;1.318;103.762;2023-02-28T02:36:37;25.50;99.90
27781;DHT22;15167;1.318;103.762;2023-02-28T02:39:12;25.70;99.90
27781;DHT22;15167;1.318;103.762;2023-02-28T02:41:40;25.80;99.90
27781;DHT22;15167;1.318;103.762;2023-02-28T02:44:27;25.80;99.90
27781;DHT22;15167;1.318;103.762;2023-02-28T02:47:01;25.90;99.90
27781;DHT22;15167;1.318;103.762;2023-02-28T02:49:30;25.90;99.90
27781;DHT22;15167;1.318;103.762;2023-02-28T02:51:57;26.00;99.90
27781;DHT22;15167;1.318;103.762;2023-02-28T02:54:28;26.00;99.90
27781;DHT22;15167;1.318;103.762;2023-02-28T02:56:59;26.00;99.90
27781;DHT22;15167;1.318;103.762;2023-02-28T02:59:27;26.10;99.90
27781;DHT22;15167;1.318;103.762;2023-02-28T03:01:57;26.10;99.90
27781;DHT22;15167;1.318;103.762;2023-02-28T03:04:25;26.10;99.90
27781;DHT22;15167;1.318;103.762;2023-02-28T03:06:53;26.30;99.90
27781;DHT22;15167;1.318;103.762;2023-02-28T03:09:23;26.40;99.90
27781;DHT22;15167;1.318;103.762;2023-02-28T03:11:50;26.50;99.90
27781;DHT22;15167;1.318;103.762;2023-02-28T03:19:37;26.40;99.90
27781;DHT22;15167;1.318;103.762;2023-02-28T03:30:19;26.70;99.90
27781;DHT22;15167;1.318;103.762;2023-02-28T03:32:53;26.80;99.90
27781;DHT22;15167;1.318;103.762;2023-02-28T03:35:23;26.70;99.90
27781;DHT22;15167;1.318;103.762;2023-02-28T03:37:50;26.80;99.90
27781;DHT22;15167;1.318;103.762;2023-02-28T03:40:19;26.90;99.90
27781;DHT22;15167;1.318;103.762;2023-02-28T03:42:47;26.80;99.90
27781;DHT22;15167;1.318;103.762;2023-02-28T03:45:18;26.70;99.90
27781;DHT22;15167;1.318;103.762;2023-02-28T03:47:53;26.50;25.80
27781;DHT22;15167;1.318;103.762;2023-02-28T03:50:24;26.40;1.00
27781;DHT22;15167;1.318;103.762;2023-02-28T03:53:01;26.30;1.00
27781;DHT22;15167;1.318;103.762;2023-02-28T03:55:31;26.20;1.00
27781;DHT22;15167;1.318;103.762;2023-02-28T03:58:01;26.20;6.50
27781;DHT22;15167;1.318;103.762;2023-02-28T04:00:34;26.40;3.40
27781;DHT22;15167;1.318;103.762;2023-02-28T04:03:01;26.50;1.00
27781;DHT22;15167;1.318;103.762;2023-02-28T04:05:28;26.80;1.00
27781;DHT22;15167;1.318;103.762;2023-02-28T04:08:03;26.90;1.00
27781;DHT22;15167;1.318;103.762;2023-02-28T04:10:29;26.90;99.90
27781;DHT22;15167;1.318;103.762;2023-02-28T04:12:55;26.80;99.90
27781;DHT22;15167;1.318;103.762;2023-02-28T04:15:21;27.00;99.90
27781;DHT22;15167;1.318;103.762;2023-02-28T04:17:48;27.10;99.90
27781;DHT22;15167;1.318;103.762;2023-02-28T04:20:14;26.90;99.90
27781;DHT22;15167;1.318;103.762;2023-02-28T04:22:40;26.50;99.90
27781;DHT22;15167;1.318;103.762;2023-02-28T04:25:07;26.30;1.00
27781;DHT22;15167;1.318;103.762;2023-02-28T04:27:33;25.70;99.90
27781;DHT22;15167;1.318;103.762;2023-02-28T04:29:59;25.00;99.90
27781;DHT22;15167;1.318;103.762;2023-02-28T04:32:25;24.30;99.90
27781;DHT22;15167;1.318;103.762;2023-02-28T04:34:52;23.90;99.90
27781;DHT22;15167;1.318;103.762;2023-02-28T04:37:18;23.50;99.90
27781;DHT22;15167;1.318;103.762;2023-02-28T04:39:44;23.30;99.90
27781;DHT22;15167;1.318;103.762;2023-02-28T04:42:10;23.10;99.90
27781;DHT22;15167;1.318;103.762;2023-02-28T04:44:37;23.10;99.90
27781;DHT22;15167;1.318;103.762;2023-02-28T04:47:03;23.10;99.90
27781;DHT22;15167;1.318;103.762;2023-02-28T04:49:29;23.20;99.90
27781;DHT22;15167;1.318;103.762;2023-02-28T04:51:55;23.10;99.90
27781;DHT22;15167;1.318;103.762;2023-02-28T04:54:21;23.10;99.90
27781;DHT22;15167;1.318;103.762;2023-02-28T04:56:47;23.20;99.90
27781;DHT22;15167;1.318;103.762;2023-02-28T04:59:15;23.20;99.90
27781;DHT22;15167;1.318;103.762;2023-02-28T05:01:45;23.20;99.90
27781;DHT22;15167;1.318;103.762;2023-02-28T05:04:11;23.10;99.90
27781;DHT22;15167;1.318;103.762;2023-02-28T05:06:37;23.20;99.90
27781;DHT22;15167;1.318;103.762;2023-02-28T05:09:03;23.30;99.90
27781;DHT22;15167;1.318;103.762;2023-02-28T05:11:32;23.30;99.90
27781;DHT22;15167;1.318;103.762;2023-02-28T05:14:05;23.30;99.90
27781;DHT22;15167;1.318;103.762;2023-02-28T05:16:31;23.40;99.90
27781;DHT22;15167;1.318;103.762;2023-02-28T05:18:58;23.40;99.90
27781;DHT22;15167;1.318;103.762;2023-02-28T05:21:28;23.40;99.90
27781;DHT22;15167;1.318;103.762;2023-02-28T05:23:55;23.40;99.90
27781;DHT22;15167;1.318;103.762;2023-02-28T05:26:22;23.40;99.90
27781;DHT22;15167;1.318;103.762;2023-02-28T05:28:48;23.40;99.90
27781;DHT22;15167;1.318;103.762;2023-02-28T05:31:14;23.30;99.90
27781;DHT22;15167;1.318;103.762;2023-02-28T05:33:40;23.40;99.90
27781;DHT22;15167;1.318;103.762;2023-02-28T05:36:07;23.40;99.90
27781;DHT22;15167;1.318;103.762;2023-02-28T05:38:33;23.40;99.90
27781;DHT22;15167;1.318;103.762;2023-02-28T05:40:59;23.40;99.90
27781;DHT22;15167;1.318;103.762;2023-02-28T05:43:25;23.40;99.90
27781;DHT22;15167;1.318;103.762;2023-02-28T05:45:51;23.40;99.90
27781;DHT22;15167;1.318;103.762;2023-02-28T05:48:17;23.40;99.90
27781;DHT22;15167;1.318;103.762;2023-02-28T05:50:43;23.40;99.90
27781;DHT22;15167;1.318;103.762;2023-02-28T05:53:11;23.40;99.90
27781;DHT22;15167;1.318;103.762;2023-02-28T05:55:37;23.30;99.90
27781;DHT22;15167;1.318;103.762;2023-02-28T05:58:05;23.40;99.90
27781;DHT22;15167;1.318;103.762;2023-02-28T06:00:31;23.40;99.90
27781;DHT22;15167;1.318;103.762;2023-02-28T06:02:57;23.40;99.90
27781;DHT22;15167;1.318;103.762;2023-02-28T06:05:27;23.40;99.90
27781;DHT22;15167;1.318;103.762;2023-02-28T06:07:53;23.40;99.90
27781;DHT22;15167;1.318;103.762;2023-02-28T06:10:19;23.50;99.90
27781;DHT22;15167;1.318;103.762;2023-02-28T06:12:45;23.60;99.90
27781;DHT22;15167;1.318;103.762;2023-02-28T06:15:12;23.60;99.90
27781;DHT22;15167;1.318;103.762;2023-02-28T06:17:40;23.70;99.90
27781;DHT22;15167;1.318;103.762;2023-02-28T06:20:06;23.70;99.90
27781;DHT22;15167;1.318;103.762;2023-02-28T06:22:34;23.70;99.90
27781;DHT22;15167;1.318;103.762;2023-02-28T06:25:01;23.70;99.90
27781;DHT22;15167;1.318;103.762;2023-02-28T06:27:27;23.70;99.90
27781;DHT22;15167;1.318;103.762;2023-02-28T06:29:53;23.70;99.90
27781;DHT22;15167;1.318;103.762;2023-02-28T06:32:21;23.80;99.90
27781;DHT22;15167;1.318;103.762;2023-02-28T06:34:47;23.80;99.90
27781;DHT22;15167;1.318;103.762;2023-02-28T06:37:13;23.80;99.90
27781;DHT22;15167;1.318;103.762;2023-02-28T06:39:40;23.80;99.90
27781;DHT22;15167;1.318;103.762;2023-02-28T06:42:06;23.90;99.90
27781;DHT22;15167;1.318;103.762;2023-02-28T06:44:32;23.90;99.90
27781;DHT22;15167;1.318;103.762;2023-02-28T06:47:04;23.90;99.90
27781;DHT22;15167;1.318;103.762;2023-02-28T06:49:31;24.00;99.90
27781;DHT22;15167;1.318;103.762;2023-02-28T06:51:57;24.00;99.90
27781;DHT22;15167;1.318;103.762;2023-02-28T06:54:23;24.00;99.90
27781;DHT22;15167;1.318;103.762;2023-02-28T06:56:49;24.10;99.90
27781;DHT22;15167;1.318;103.762;2023-02-28T06:59:16;24.10;99.90
27781;DHT22;15167;1.318;103.762;2023-02-28T07:01:42;24.10;99.90
27781;DHT22;15167;1.318;103.762;2023-02-28T07:04:08;24.20;99.90
27781;DHT22;15167;1.318;103.762;2023-02-28T07:06:34;24.20;99.90
27781;DHT22;15167;1.318;103.762;2023-02-28T07:09:01;24.30;99.90
27781;DHT22;15167;1.318;103.762;2023-02-28T07:11:27;24.30;99.90
27781;DHT22;15167;1.318;103.762;2023-02-28T07:13:54;24.30;99.90
27781;DHT22;15167;1.318;103.762;2023-02-28T07:16:20;24.40;99.90
27781;DHT22;15167;1.318;103.762;2023-02-28T07:18:47;24.40;99.90
27781;DHT22;15167;1.318;103.762;2023-02-28T07:21:13;24.40;99.90
27781;DHT22;15167;1.318;103.762;2023-02-28T07:23:39;24.40;99.90
27781;DHT22;15167;1.318;103.762;2023-02-28T07:26:07;24.40;99.90
27781;DHT22;15167;1.318;103.762;2023-02-28T07:28:36;24.40;99.90
27781;DHT22;15167;1.318;103.762;2023-02-28T07:31:06;24.40;99.90
27781;DHT22;15167;1.318;103.762;2023-02-28T07:33:32;24.40;99.90
27781;DHT22;15167;1.318;103.762;2023-02-28T07:36:00;24.40;99.90
27781;DHT22;15167;1.318;103.762;2023-02-28T07:38:26;24.30;99.90
27781;DHT22;15167;1.318;103.762;2023-02-28T07:40:53;24.40;99.90
27781;DHT22;15167;1.318;103.762;2023-02-28T07:43:19;24.40;99.90
27781;DHT22;15167;1.318;103.762;2023-02-28T07:45:45;24.40;99.90
27781;DHT22;15167;1.318;103.762;2023-02-28T07:48:11;24.50;99.90
27781;DHT22;15167;1.318;103.762;2023-02-28T07:50:37;24.40;99.90
27781;DHT22;15167;1.318;103.762;2023-02-28T07:53:03;24.50;99.90
27781;DHT22;15167;1.318;103.762;2023-02-28T07:55:30;24.50;99.90
27781;DHT22;15167;1.318;103.762;2023-02-28T07:57:56;24.50;99.90
27781;DHT22;15167;1.318;103.762;2023-02-28T08:00:23;24.50;99.90
27781;DHT22;15167;1.318;103.762;2023-02-28T08:02:49;24.50;99.90
27781;DHT22;15167;1.318;103.762;2023-02-28T08:05:15;24.50;99.90
27781;DHT22;15167;1.318;103.762;2023-02-28T08:07:41;24.50;99.90
27781;DHT22;15167;1.318;103.762;2023-02-28T08:10:07;24.40;99.90
27781;DHT22;15167;1.318;103.762;2023-02-28T08:12:35;24.40;99.90
27781;DHT22;15167;1.318;103.762;2023-02-28T08:15:01;24.40;99.90
27781;DHT22;15167;1.318;103.762;2023-02-28T08:17:27;24.30;99.90
27781;DHT22;15167;1.318;103.762;2023-02-28T08:19:53;24.30;99.90
27781;DHT22;15167;1.318;103.762;2023-02-28T08:22:20;24.40;99.90
27781;DHT22;15167;1.318;103.762;2023-02-28T08:24:46;24.40;99.90
27781;DHT22;15167;1.318;103.762;2023-02-28T08:27:12;24.40;99.90
27781;DHT22;15167;1.318;103.762;2023-02-28T08:29:38;24.40;99.90
27781;DHT22;15167;1.318;103.762;2023-02-28T08:32:05;24.40;99.90
27781;DHT22;15167;1.318;103.762;2023-02-28T08:34:31;24.30;99.90
27781;DHT22;15167;1.318;103.762;2023-02-28T08:36:57;24.30;99.90
27781;DHT22;15167;1.318;103.762;2023-02-28T08:39:24;24.30;99.90
27781;DHT22;15167;1.318;103.762;2023-02-28T08:41:50;24.30;99.90
27781;DHT22;15167;1.318;103.762;2023-02-28T08:44:16;24.10;99.90
27781;DHT22;15167;1.318;103.762;2023-02-28T08:46:42;24.10;99.90
27781;DHT22;15167;1.318;103.762;2023-02-28T08:49:09;24.10;99.90
27781;DHT22;15167;1.318;103.762;2023-02-28T08:51:36;24.10;99.90
27781;DHT22;15167;1.318;103.762;2023-02-28T08:54:02;24.10;99.90
27781;DHT22;15167;1.318;103.762;2023-02-28T08:56:28;24.10;99.90
27781;DHT22;15167;1.318;103.762;2023-02-28T08:58:55;24.10;99.90
27781;DHT22;15167;1.318;103.762;2023-02-28T09:01:23;24.00;99.90
27781;DHT22;15167;1.318;103.762;2023-02-28T09:03:50;24.00;99.90
27781;DHT22;15167;1.318;103.762;2023-02-28T09:06:17;24.00;99.90
27781;DHT22;15167;1.318;103.762;2023-02-28T09:08:43;23.90;99.90
27781;DHT22;15167;1.318;103.762;2023-02-28T09:11:09;23.90;99.90
27781;DHT22;15167;1.318;103.762;2023-02-28T09:13:36;23.90;99.90
27781;DHT22;15167;1.318;103.762;2023-02-28T09:16:03;23.80;99.90
27781;DHT22;15167;1.318;103.762;2023-02-28T09:18:30;23.80;99.90
27781;DHT22;15167;1.318;103.762;2023-02-28T09:20:56;23.80;99.90
27781;DHT22;15167;1.318;103.762;2023-02-28T09:23:23;23.80;99.90
27781;DHT22;15167;1.318;103.762;2023-02-28T09:25:50;23.80;99.90
27781;DHT22;15167;1.318;103.762;2023-02-28T09:28:17;23.80;99.90
27781;DHT22;15167;1.318;103.762;2023-02-28T09:30:47;23.80;99.90
27781;DHT22;15167;1.318;103.762;2023-02-28T09:33:13;23.80;99.90
27781;DHT22;15167;1.318;103.762;2023-02-28T09:35:40;23.90;99.90
27781;DHT22;15167;1.318;103.762;2023-02-28T09:38:06;23.90;99.90
27781;DHT22;15167;1.318;103.762;2023-02-28T09:40:41;24.00;99.90
27781;DHT22;15167;1.318;103.762;2023-02-28T09:43:10;24.10;99.90
27781;DHT22;15167;1.318;103.762;2023-02-28T09:45:39;24.00;99.90
27781;DHT22;15167;1.318;103.762;2023-02-28T09:48:10;24.00;99.90
27781;DHT22;15167;1.318;103.762;2023-02-28T09:53:36;24.00;99.90
27781;DHT22;15167;1.318;103.762;2023-02-28T09:56:09;24.00;99.90
27781;DHT22;15167;1.318;103.762;2023-02-28T10:06:50;24.00;99.90
27781;DHT22;15167;1.318;103.762;2023-02-28T10:11:52;24.00;99.90
27781;DHT22;15167;1.318;103.762;2023-02-28T10:14:23;23.90;99.90
27781;DHT22;15167;1.318;103.762;2023-02-28T10:20:26;23.90;99.90
27781;DHT22;15167;1.318;103.762;2023-02-28T10:24:56;23.70;99.90
27781;DHT22;15167;1.318;103.762;2023-02-28T10:27:34;23.70;99.90
27781;DHT22;15167;1.318;103.762;2023-02-28T10:30:01;23.70;99.90
27781;DHT22;15167;1.318;103.762;2023-02-28T10:35:10;23.70;99.90
27781;DHT22;15167;1.318;103.762;2023-02-28T10:37:40;23.70;99.90
27781;DHT22;15167;1.318;103.762;2023-02-28T10:40:25;23.80;99.90
27781;DHT22;15167;1.318;103.762;2023-02-28T10:42:58;23.70;99.90
27781;DHT22;15167;1.318;103.762;2023-02-28T10:45:25;23.20;99.90
27781;DHT22;15167;1.318;103.762;2023-02-28T10:47:53;23.70;99.90
27781;DHT22;15167;1.318;103.762;2023-02-28T10:55:47;23.70;99.90
27781;DHT22;15167;1.318;103.762;2023-02-28T10:58:31;23.60;99.90
27781;DHT22;15167;1.318;103.762;2023-02-28T11:00:58;23.50;99.90
27781;DHT22;15167;1.318;103.762;2023-02-28T11:03:28;23.50;99.90
27781;DHT22;15167;1.318;103.762;2023-02-28T11:05:54;23.50;99.90
27781;DHT22;15167;1.318;103.762;2023-02-28T11:08:20;23.50;99.90
27781;DHT22;15167;1.318;103.762;2023-02-28T11:10:47;23.50;99.90
27781;DHT22;15167;1.318;103.762;2023-02-28T11:13:18;23.50;99.90
27781;DHT22;15167;1.318;103.762;2023-02-28T11:16:18;23.50;99.90
27781;DHT22;15167;1.318;103.762;2023-02-28T11:21:07;23.50;99.90
27781;DHT22;15167;1.318;103.762;2023-02-28T11:23:34;23.50;99.90
27781;DHT22;15167;1.318;103.762;2023-02-28T11:26:02;23.50;99.90
27781;DHT22;15167;1.318;103.762;2023-02-28T11:28:33;23.50;99.90
27781;DHT22;15167;1.318;103.762;2023-02-28T11:31:04;23.50;99.90
27781;DHT22;15167;1.318;103.762;2023-02-28T11:33:32;23.50;99.90
27781;DHT22;15167;1.318;103.762;2023-02-28T11:36:10;23.50;99.90
27781;DHT22;15167;1.318;103.762;2023-02-28T11:38:36;23.50;99.90
27781;DHT22;15167;1.318;103.762;2023-02-28T11:51:59;23.40;99.90
27781;DHT22;15167;1.318;103.762;2023-02-28T11:56:57;23.40;99.90
27781;DHT22;15167;1.318;103.762;2023-02-28T12:04:51;23.40;99.90
27781;DHT22;15167;1.318;103.762;2023-02-28T12:10:09;23.40;99.90
27781;DHT22;15167;1.318;103.762;2023-02-28T12:12:59;23.30;99.90
27781;DHT22;15167;1.318;103.762;2023-02-28T12:28:43;23.30;99.90
27781;DHT22;15167;1.318;103.762;2023-02-28T12:31:34;23.10;99.90
27781;DHT22;15167;1.318;103.762;2023-02-28T12:34:03;23.10;99.90
27781;DHT22;15167;1.318;103.762;2023-02-28T12:36:30;23.10;99.90
27781;DHT22;15167;1.318;103.762;2023-02-28T12:38:59;23.10;99.90
27781;DHT22;15167;1.318;103.762;2023-02-28T12:41:33;23.30;99.90
27781;DHT22;15167;1.318;103.762;2023-02-28T12:44:02;23.20;99.90
27781;DHT22;15167;1.318;103.762;2023-02-28T12:46:34;23.30;99.90
27781;DHT22;15167;1.318;103.762;2023-02-28T12:49:06;23.30;99.90
27781;DHT22;15167;1.318;103.762;2023-02-28T12:51:33;23.40;99.90
27781;DHT22;15167;1.318;103.762;2023-02-28T12:54:04;23.40;99.90
27781;DHT22;15167;1.318;103.762;2023-02-28T12:56:35;23.50;99.90
27781;DHT22;15167;1.318;103.762;2023-02-28T12:59:14;23.50;99.90
27781;DHT22;15167;1.318;103.762;2023-02-28T13:09:38;23.30;99.90
27781;DHT22;15167;1.318;103.762;2023-02-28T13:12:14;23.30;99.90
27781;DHT22;15167;1.318;103.762;2023-02-28T13:14:41;23.30;99.90
27781;DHT22;15167;1.318;103.762;2023-02-28T13:24:46;23.30;99.90
27781;DHT22;15167;1.318;103.762;2023-02-28T13:29:42;23.40;99.90
27781;DHT22;15167;1.318;103.762;2023-02-28T13:34:39;23.40;99.90
27781;DHT22;15167;1.318;103.762;2023-02-28T13:50:35;23.00;99.90
27781;DHT22;15167;1.318;103.762;2023-02-28T13:53:12;22.90;99.90
27781;DHT22;15167;1.318;103.762;2023-02-28T13:56:26;22.90;99.90
27781;DHT22;15167;1.318;103.762;2023-02-28T14:01:12;23.00;99.90
27781;DHT22;15167;1.318;103.762;2023-02-28T14:03:44;23.10;99.90
27781;DHT22;15167;1.318;103.762;2023-02-28T14:08:58;23.20;99.90
27781;DHT22;15167;1.318;103.762;2023-02-28T14:11:43;23.30;99.90
27781;DHT22;15167;1.318;103.762;2023-02-28T14:14:25;23.20;99.90
27781;DHT22;15167;1.318;103.762;2023-02-28T14:16:55;23.20;99.90
27781;DHT22;15167;1.318;103.762;2023-02-28T14:19:25;23.20;99.90
27781;DHT22;15167;1.318;103.762;2023-02-28T14:27:08;23.30;99.90
27781;DHT22;15167;1.318;103.762;2023-02-28T14:29:42;23.20;99.90
27781;DHT22;15167;1.318;103.762;2023-02-28T14:32:29;23.20;99.90
27781;DHT22;15167;1.318;103.762;2023-02-28T14:37:45;23.20;99.90
27781;DHT22;15167;1.318;103.762;2023-02-28T14:42:58;23.30;99.90
27781;DHT22;15167;1.318;103.762;2023-02-28T14:45:25;23.30;99.90
27781;DHT22;15167;1.318;103.762;2023-02-28T14:47:52;23.30;99.90
27781;DHT22;15167;1.318;103.762;2023-02-28T14:50:19;23.40;99.90
27781;DHT22;15167;1.318;103.762;2023-02-28T14:52:46;23.40;99.90
27781;DHT22;15167;1.318;103.762;2023-02-28T14:55:13;23.40;99.90
27781;DHT22;15167;1.318;103.762;2023-02-28T14:57:41;23.30;99.90
27781;DHT22;15167;1.318;103.762;2023-02-28T15:00:12;23.30;99.90
27781;DHT22;15167;1.318;103.762;2023-02-28T15:02:39;23.30;99.90
27781;DHT22;15167;1.318;103.762;2023-02-28T15:07:38;23.20;99.90
27781;DHT22;15167;1.318;103.762;2023-02-28T15:10:09;23.10;99.90
27781;DHT22;15167;1.318;103.762;2023-02-28T15:12:35;23.10;99.90
27781;DHT22;15167;1.318;103.762;2023-02-28T15:15:02;23.00;99.90
27781;DHT22;15167;1.318;103.762;2023-02-28T15:17:28;23.00;99.90
27781;DHT22;15167;1.318;103.762;2023-02-28T15:19:55;23.00;99.90
27781;DHT22;15167;1.318;103.762;2023-02-28T15:22:55;23.00;99.90
27781;DHT22;15167;1.318;103.762;2023-02-28T15:25:15;22.90;99.90
27781;DHT22;15167;1.318;103.762;2023-02-28T15:27:50;22.90;99.90
27781;DHT22;15167;1.318;103.762;2023-02-28T15:30:27;22.80;99.90
27781;DHT22;15167;1.318;103.762;2023-02-28T15:33:04;22.80;99.90
27781;DHT22;15167;1.318;103.762;2023-02-28T15:35:31;22.70;99.90
27781;DHT22;15167;1.318;103.762;2023-02-28T15:38:17;22.80;99.90
27781;DHT22;15167;1.318;103.762;2023-02-28T15:40:44;22.80;99.90
27781;DHT22;15167;1.318;103.762;2023-02-28T15:43:15;22.70;99.90
27781;DHT22;15167;1.318;103.762;2023-02-28T15:45:46;22.70;99.90
27781;DHT22;15167;1.318;103.762;2023-02-28T15:48:23;22.70;99.90
27781;DHT22;15167;1.318;103.762;2023-02-28T15:50:51;22.70;99.90
27781;DHT22;15167;1.318;103.762;2023-02-28T15:53:19;22.70;99.90
27781;DHT22;15167;1.318;103.762;2023-02-28T15:55:52;22.70;99.90
27781;DHT22;15167;1.318;103.762;2023-02-28T15:58:18;22.80;99.90
27781;DHT22;15167;1.318;103.762;2023-02-28T16:00:45;22.80;99.90
27781;DHT22;15167;1.318;103.762;2023-02-28T16:03:35;22.80;99.90
27781;DHT22;15167;1.318;103.762;2023-02-28T16:08:47;22.90;99.90
27781;DHT22;15167;1.318;103.762;2023-02-28T16:11:16;22.90;99.90
27781;DHT22;15167;1.318;103.762;2023-02-28T16:13:43;22.90;99.90
27781;DHT22;15167;1.318;103.762;2023-02-28T16:16:14;22.90;99.90
27781;DHT22;15167;1.318;103.762;2023-02-28T16:18:40;23.00;99.90
27781;DHT22;15167;1.318;103.762;2023-02-28T16:21:06;22.90;99.90
27781;DHT22;15167;1.318;103.762;2023-02-28T16:23:32;22.90;99.90
27781;DHT22;15167;1.318;103.762;2023-02-28T16:25:59;22.90;99.90
27781;DHT22;15167;1.318;103.762;2023-02-28T16:28:26;23.00;99.90
27781;DHT22;15167;1.318;103.762;2023-02-28T16:30:56;22.90;99.90
27781;DHT22;15167;1.318;103.762;2023-02-28T16:33:22;22.80;99.90
27781;DHT22;15167;1.318;103.762;2023-02-28T16:35:49;22.70;99.90
27781;DHT22;15167;1.318;103.762;2023-02-28T16:38:15;22.60;99.90
27781;DHT22;15167;1.318;103.762;2023-02-28T16:40:41;22.70;99.90
27781;DHT22;15167;1.318;103.762;2023-02-28T16:43:09;22.60;99.90
27781;DHT22;15167;1.318;103.762;2023-02-28T16:45:39;22.70;99.90
27781;DHT22;15167;1.318;103.762;2023-02-28T16:48:05;22.70;99.90
27781;DHT22;15167;1.318;103.762;2023-02-28T16:50:31;22.70;99.90
27781;DHT22;15167;1.318;103.762;2023-02-28T16:52:58;22.80;99.90
27781;DHT22;15167;1.318;103.762;2023-02-28T16:55:24;22.80;99.90
27781;DHT22;15167;1.318;103.762;2023-02-28T16:57:55;22.80;99.90
27781;DHT22;15167;1.318;103.762;2023-02-28T17:00:21;22.80;99.90
27781;DHT22;15167;1.318;103.762;2023-02-28T17:02:48;22.70;99.90
27781;DHT22;15167;1.318;103.762;2023-02-28T17:05:14;22.70;99.90
27781;DHT22;15167;1.318;103.762;2023-02-28T17:07:41;22.60;99.90
27781;DHT22;15167;1.318;103.762;2023-02-28T17:10:12;22.50;99.90
27781;DHT22;15167;1.318;103.762;2023-02-28T17:12:38;22.60;99.90
27781;DHT22;15167;1.318;103.762;2023-02-28T17:15:05;22.60;99.90
27781;DHT22;15167;1.318;103.762;2023-02-28T17:17:31;22.70;99.90
27781;DHT22;15167;1.318;103.762;2023-02-28T17:19:58;22.70;99.90
27781;DHT22;15167;1.318;103.762;2023-02-28T17:22:24;22.70;99.90
27781;DHT22;15167;1.318;103.762;2023-02-28T17:24:51;22.70;99.90
27781;DHT22;15167;1.318;103.762;2023-02-28T17:27:21;22.60;99.90
27781;DHT22;15167;1.318;103.762;2023-02-28T17:29:47;22.70;99.90
27781;DHT22;15167;1.318;103.762;2023-02-28T17:32:13;22.60;99.90
27781;DHT22;15167;1.318;103.762;2023-02-28T17:34:39;22.60;99.90
27781;DHT22;15167;1.318;103.762;2023-02-28T17:37:07;22.60;99.90
27781;DHT22;15167;1.318;103.762;2023-02-28T17:39:33;22.50;99.90
27781;DHT22;15167;1.318;103.762;2023-02-28T17:41:59;22.60;99.90
27781;DHT22;15167;1.318;103.762;2023-02-28T17:44:26;22.50;99.90
27781;DHT22;15167;1.318;103.762;2023-02-28T17:46:53;22.50;99.90
27781;DHT22;15167;1.318;103.762;2023-02-28T17:49:19;22.50;99.90
27781;DHT22;15167;1.318;103.762;2023-02-28T17:51:46;22.40;99.90
27781;DHT22;15167;1.318;103.762;2023-02-28T17:54:13;22.40;99.90
27781;DHT22;15167;1.318;103.762;2023-02-28T17:56:39;22.40;99.90